Nearby METAR Reports

 

KOJC - Olathe/Executive, Kansas, USA
Distance from station: S 9mi, 15km
Updated: Fri, 24-Nov-2017 2:53am CST
Clear
Clear
 Wind from S
Wind: S 8 mph , 13 km/h
Temperature: 46°F , 8°C
Wind Chill: 42°F , 6°C
Dew Point: 34°F , 1°C
Humidity: 62%
Barometer: 29.82 inHg , 1009.8 hPa
Clouds: Clear
Visibility: 10 miles , 16 km
2017/11/24 08:53 KOJC 240853Z AUTO 19007KT 10SM CLR 08/01 A2982 RMK AO2 SLP096 T00830006 58018 $
KMKC - Kansas City/Dntn, Missouri, USA
Distance from station: NE 12mi, 20km
Updated: Fri, 24-Nov-2017 1:54am CST
Clear
Clear
 Wind from S
Wind: S 8 mph , 13 km/h
Temperature: 54°F , 12°C
Dew Point: 34°F , 1°C
Humidity: 47%
Barometer: 29.82 inHg , 1009.8 hPa
Clouds: Clear
Visibility: 10 miles , 16 km
2017/11/24 07:54 KMKC 240754Z 18007KT 10SM CLR 12/01 A2982 RMK AO2 SLP094 T01220011
 
KIXD - Olathe/Industria, Kansas, USA
Distance from station: SSW 14mi, 22km
Updated: Fri, 24-Nov-2017 2:53am CST
Clear
Clear
 Wind from S
Wind: S 8 mph , 13 km/h
Temperature: 45°F , 7°C
Wind Chill: 41°F , 5°C
Dew Point: 34°F , 1°C
Humidity: 66%
Barometer: 29.82 inHg , 1009.8 hPa
Clouds: Clear
Visibility: 10 miles , 16 km
2017/11/24 08:53 KIXD 240853Z AUTO 17007KT 10SM CLR 07/01 A2982 RMK AO2 SLP096 T00670011 56018
KLXT - Lees Summit Muni, Missouri, USA
Distance from station: E 21mi, 33km
Updated: Fri, 24-Nov-2017 2:53am CST
Clear
Clear
 Wind from SSW
Wind: SSW 13 mph , 20 km/h
Temperature: 50°F , 10°C
Wind Chill: 45°F , 7°C
Dew Point: 34°F , 1°C
Humidity: 54%
Barometer: 29.82 inHg , 1009.8 hPa
Clouds: Clear
Visibility: 10 miles , 16 km
2017/11/24 08:53 KLXT 240853Z AUTO 20011KT 10SM CLR 10/01 A2982 RMK AO2 SLP098 T01000006
 
KMCI - Kansas City/Intl, Missouri, USA
Distance from station: N 22mi, 35km
Updated: Fri, 24-Nov-2017 2:53am CST
Few Clouds
Few Clouds
 Wind from SSW
Wind: SSW 14 mph , 22 km/h
Temperature: 52°F , 11°C
Dew Point: 34°F , 1°C
Humidity: 50%
Barometer: 29.79 inHg , 1008.8 hPa
Clouds: Few Clouds
Visibility: 10 miles , 16 km
Cloud details: Few Clouds 15000 ft
2017/11/24 08:53 KMCI 240853Z 20012KT 10SM FEW150 11/01 A2979 RMK AO2 SLP084 T011100
KLWC - Lawrence, Kansas, USA
Distance from station: W 25mi, 40km
Updated: Fri, 24-Nov-2017 2:52am CST
Clear
Clear
 Wind from SSE
Wind: SSE 8 mph , 13 km/h
Temperature: 48°F , 9°C
Wind Chill: 44°F , 7°C
Dew Point: 36°F , 2°C
Humidity: 62%
Barometer: 29.81 inHg , 1009.5 hPa
Clouds: Clear
Visibility: 10 miles , 16 km
2017/11/24 08:52 KLWC 240852Z AUTO 15007KT 10SM CLR 09/02 A2981 RMK AO2 SLP091 T00940017 56019
 
KGPH - Mosby, Missouri, USA
Distance from station: NE 34mi, 54km
Updated: Fri, 24-Nov-2017 2:55am CST
Clear
Clear
 Wind from SE
Wind: SE 3 mph , 6 km/h
Temperature: 46°F , 8°C
Dew Point: 34°F , 1°C
Humidity: 62%
Barometer: 29.82 inHg , 1009.8 hPa
Clouds: Clear
Visibility: 10 miles , 16 km
2017/11/24 08:55 KGPH 240855Z AUTO 14003KT 10SM CLR 08/01 A2982 RMK AO2
KTOP - Topeka, Kansas, USA
Distance from station: W 48mi, 77km
Updated: Fri, 24-Nov-2017 2:53am CST
Clear
Clear
 Wind from S
Wind: S 7 mph , 11 km/h
Temperature: 52°F , 11°C
Dew Point: 36°F , 2°C
Humidity: 54%
Barometer: 29.78 inHg , 1008.5 hPa
Clouds: Clear
Visibility: 10 miles , 16 km
2017/11/24 08:53 KTOP 240853Z AUTO 19006KT 10SM CLR 11/02 A2978 RMK AO2 SLP083 T01060022 56021
 
KFOE - Topeka/Forbes, Kansas, USA
Distance from station: W 48mi, 78km
Updated: Fri, 24-Nov-2017 2:53am CST
Clear
Clear
 Wind from S
Wind: S 12 mph , 19 km/h
Temperature: 52°F , 11°C
Dew Point: 36°F , 2°C
Humidity: 54%
Barometer: 29.79 inHg , 1008.8 hPa
Clouds: Clear
Visibility: 10 miles , 16 km
2017/11/24 08:53 KFOE 240853Z AUTO 18010KT 10SM CLR 11/02 A2979 RMK AO2 SLP082 T01060017 56021